createdAt,value
2022-10-05T00:00:11.801Z,15.805
2022-10-05T00:01:11.262Z,15.76
2022-10-05T00:02:11.273Z,15.745
2022-10-05T00:03:11.226Z,15.7
2022-10-05T00:04:10.204Z,15.705
2022-10-05T00:05:11.791Z,15.6841
2022-10-05T00:06:11.375Z,15.666
2022-10-05T00:07:10.621Z,15.643
2022-10-05T00:08:12.222Z,15.6258
2022-10-05T00:09:10.694Z,15.626
2022-10-05T00:10:10.784Z,15.59
2022-10-05T00:11:11.987Z,15.6
2022-10-05T00:12:11.424Z,15.575
2022-10-05T00:13:10.795Z,15.565
2022-10-05T00:14:10.797Z,15.545
2022-10-05T00:15:10.885Z,15.505
2022-10-05T00:16:11.003Z,15.495
2022-10-05T00:17:11.168Z,15.46
2022-10-05T00:18:11.144Z,15.435
2022-10-05T00:19:10.120Z,15.4181
2022-10-05T00:20:11.070Z,15.403
2022-10-05T00:21:10.939Z,15.41
2022-10-05T00:22:10.375Z,15.348
2022-10-05T00:23:11.704Z,15.326
2022-10-05T00:24:11.301Z,15.305
2022-10-05T00:25:10.765Z,15.27
2022-10-05T00:26:11.430Z,15.285
2022-10-05T00:27:11.120Z,15.265
2022-10-05T00:28:10.652Z,15.25
2022-10-05T00:29:11.081Z,15.245
2022-10-05T00:30:10.888Z,15.255
2022-10-05T00:31:10.710Z,15.255
2022-10-05T00:32:11.415Z,15.25
2022-10-05T00:33:10.243Z,15.24
2022-10-05T00:34:10.631Z,15.245
2022-10-05T00:35:10.625Z,15.24
2022-10-05T00:36:11.499Z,15.24
2022-10-05T00:37:11.554Z,15.23
2022-10-05T00:38:10.932Z,15.2
2022-10-05T00:39:10.724Z,15.2
2022-10-05T00:40:10.540Z,15.166
2022-10-05T00:41:11.019Z,15.172
2022-10-05T00:42:11.521Z,15.1258
2022-10-05T00:43:11.173Z,15.105
2022-10-05T00:44:09.881Z,15.09
2022-10-05T00:45:11.379Z,15.07
2022-10-05T00:46:11.161Z,15.05
2022-10-05T00:47:10.943Z,15.045
2022-10-05T00:48:10.820Z,15.02
2022-10-05T00:49:10.099Z,15.01
2022-10-05T00:50:11.137Z,14.995
2022-10-05T00:51:10.920Z,14.98
2022-10-05T00:52:10.729Z,14.955
2022-10-05T00:53:11.505Z,14.91
2022-10-05T00:54:12.606Z,14.905
2022-10-05T00:55:11.659Z,14.867
2022-10-05T00:56:11.442Z,14.873
2022-10-05T00:57:11.161Z,14.884
2022-10-05T00:58:11.910Z,14.884
2022-10-05T00:59:10.756Z,14.839
2022-10-05T01:00:11.204Z,14.805
2022-10-05T01:01:11.997Z,14.775
2022-10-05T01:02:11.497Z,14.8
2022-10-05T01:03:10.766Z,14.785
2022-10-05T01:04:10.795Z,14.765
2022-10-05T01:05:11.258Z,14.785
2022-10-05T01:06:11.161Z,14.765
2022-10-05T01:07:11.660Z,14.755
2022-10-05T01:08:11.112Z,14.72
2022-10-05T01:09:10.810Z,14.705
2022-10-05T01:10:11.716Z,14.694
2022-10-05T01:11:11.165Z,14.71
2022-10-05T01:12:11.755Z,14.7
2022-10-05T01:13:11.445Z,14.7
2022-10-05T01:14:10.218Z,14.6783
2022-10-05T01:15:11.955Z,14.666
2022-10-05T01:16:11.287Z,14.6783
2022-10-05T01:17:11.002Z,14.672
2022-10-05T01:18:11.687Z,14.6841
2022-10-05T01:19:10.471Z,14.677
2022-10-05T01:20:10.796Z,14.6891
2022-10-05T01:21:11.335Z,14.672
2022-10-05T01:22:11.267Z,14.6316
2022-10-05T01:23:11.910Z,14.61
2022-10-05T01:24:10.435Z,14.615
2022-10-05T01:25:10.341Z,14.6258
2022-10-05T01:26:11.625Z,14.615
2022-10-05T01:27:11.685Z,14.605
2022-10-05T01:28:10.789Z,14.637
2022-10-05T01:29:10.855Z,14.655
2022-10-05T01:30:11.342Z,14.62
2022-10-05T01:31:10.824Z,14.6258
2022-10-05T01:32:11.077Z,14.643
2022-10-05T01:33:10.735Z,14.643
2022-10-05T01:34:11.569Z,14.6316
2022-10-05T01:35:11.343Z,14.615
2022-10-05T01:36:11.472Z,14.621
2022-10-05T01:37:10.718Z,14.6263
2022-10-05T01:38:11.458Z,14.632
2022-10-05T01:39:10.334Z,14.615
2022-10-05T01:40:11.182Z,14.5927
2022-10-05T01:41:10.998Z,14.5784
2022-10-05T01:42:10.696Z,14.6
2022-10-05T01:43:11.689Z,14.59
2022-10-05T01:44:10.645Z,14.59
2022-10-05T01:45:10.980Z,14.56
2022-10-05T01:46:11.995Z,14.56
2022-10-05T01:47:11.075Z,14.554
2022-10-05T01:48:10.553Z,14.55
2022-10-05T01:49:11.376Z,14.56
2022-10-05T01:50:10.916Z,14.54
2022-10-05T01:51:10.571Z,14.52
2022-10-05T01:52:11.191Z,14.52
2022-10-05T01:53:10.610Z,14.51
2022-10-05T01:54:10.648Z,14.515
2022-10-05T01:55:11.165Z,14.5
2022-10-05T01:56:10.455Z,14.48
2022-10-05T01:57:11.657Z,14.44
2022-10-05T01:58:11.331Z,14.44
2022-10-05T01:59:10.219Z,14.43
2022-10-05T02:00:11.218Z,14.4
2022-10-05T02:01:11.752Z,14.39
2022-10-05T02:02:10.541Z,14.362
2022-10-05T02:03:11.436Z,14.3741
2022-10-05T02:04:10.077Z,14.356
2022-10-05T02:05:10.846Z,14.345
2022-10-05T02:06:11.042Z,14.339
2022-10-05T02:07:11.414Z,14.3216
2022-10-05T02:08:10.796Z,14.3216
2022-10-05T02:09:10.740Z,14.3216
2022-10-05T02:10:10.206Z,14.3
2022-10-05T02:11:11.013Z,14.285
2022-10-05T02:12:11.538Z,14.28
2022-10-05T02:13:11.197Z,14.285
2022-10-05T02:14:09.922Z,14.28
2022-10-05T02:15:11.653Z,14.27
2022-10-05T02:16:11.353Z,14.265
2022-10-05T02:17:10.792Z,14.245
2022-10-05T02:18:10.834Z,14.195
2022-10-05T02:19:10.522Z,14.183
2022-10-05T02:20:11.041Z,14.172
2022-10-05T02:21:11.522Z,14.149
2022-10-05T02:22:11.337Z,14.16
2022-10-05T02:23:10.984Z,14.155
2022-10-05T02:24:10.104Z,14.177
2022-10-05T02:25:10.993Z,14.166
2022-10-05T02:26:10.615Z,14.166
2022-10-05T02:27:11.776Z,14.149
2022-10-05T02:28:10.625Z,14.121
2022-10-05T02:29:09.843Z,14.1316
2022-10-05T02:30:15.570Z,14.149
2022-10-05T02:31:10.829Z,14.16
2022-10-05T02:32:10.849Z,14.16
2022-10-05T02:33:10.581Z,14.172
2022-10-05T02:34:09.754Z,14.195
2022-10-05T02:35:11.779Z,14.194
2022-10-05T02:36:11.122Z,14.166
2022-10-05T02:37:10.803Z,14.1783
2022-10-05T02:38:11.408Z,14.172
2022-10-05T02:39:10.500Z,14.166
2022-10-05T02:40:10.878Z,14.188
2022-10-05T02:41:11.504Z,14.22
2022-10-05T02:42:10.395Z,14.24
2022-10-05T02:43:10.855Z,14.235
2022-10-05T02:44:10.592Z,14.24
2022-10-05T02:45:11.434Z,14.265
2022-10-05T02:46:11.309Z,14.26
2022-10-05T02:47:11.439Z,14.25
2022-10-05T02:48:11.104Z,14.26
2022-10-05T02:49:10.071Z,14.255
2022-10-05T02:50:11.326Z,14.27
2022-10-05T02:51:10.651Z,14.275
2022-10-05T02:52:10.375Z,14.3
2022-10-05T02:53:11.007Z,14.301
2022-10-05T02:54:10.212Z,14.3
2022-10-05T02:55:10.969Z,14.3108
2022-10-05T02:56:11.013Z,14.316
2022-10-05T02:57:10.885Z,14.3
2022-10-05T02:58:11.952Z,14.31
2022-10-05T02:59:10.489Z,14.316
2022-10-05T03:00:10.674Z,14.327
2022-10-05T03:01:11.527Z,14.305
2022-10-05T03:02:11.388Z,14.327
2022-10-05T03:03:10.514Z,14.341
2022-10-05T03:04:10.971Z,14.353
2022-10-05T03:05:11.319Z,14.3741
2022-10-05T03:06:10.477Z,14.3672
2022-10-05T03:07:11.905Z,14.3846
2022-10-05T03:08:11.162Z,14.362
2022-10-05T03:09:10.096Z,14.3736
2022-10-05T03:10:11.707Z,14.357
2022-10-05T03:11:11.427Z,14.38
2022-10-05T03:12:11.223Z,14.356
2022-10-05T03:13:11.643Z,14.373
2022-10-05T03:14:09.625Z,14.4
2022-10-05T03:15:11.664Z,14.407
2022-10-05T03:16:11.399Z,14.4236
2022-10-05T03:17:10.565Z,14.44
2022-10-05T03:18:11.605Z,14.41
2022-10-05T03:19:10.557Z,14.41
2022-10-05T03:20:10.678Z,14.405
2022-10-05T03:21:11.262Z,14.415
2022-10-05T03:22:10.822Z,14.394
2022-10-05T03:23:10.614Z,14.4
2022-10-05T03:24:10.048Z,14.385
2022-10-05T03:25:10.812Z,14.372
2022-10-05T03:26:10.286Z,14.3683
2022-10-05T03:27:11.449Z,14.3683
2022-10-05T03:28:10.316Z,14.367
2022-10-05T03:29:10.746Z,14.3741
2022-10-05T03:30:10.711Z,14.3791
2022-10-05T03:31:10.973Z,14.383
2022-10-05T03:32:11.585Z,14.39
2022-10-05T03:33:11.426Z,14.415
2022-10-05T03:34:10.099Z,14.425
2022-10-05T03:35:11.573Z,14.42
2022-10-05T03:36:10.571Z,14.445
2022-10-05T03:37:10.797Z,14.445
2022-10-05T03:38:11.987Z,14.455
2022-10-05T03:39:11.146Z,14.46
2022-10-05T03:40:10.481Z,14.45
2022-10-05T03:41:11.014Z,14.455
2022-10-05T03:42:13.197Z,14.435
2022-10-05T03:43:11.906Z,14.43
2022-10-05T03:44:11.608Z,14.43
2022-10-05T03:45:11.380Z,14.43
2022-10-05T03:46:11.873Z,14.425
2022-10-05T03:47:11.300Z,14.455
2022-10-05T03:48:10.767Z,14.445
2022-10-05T03:49:11.107Z,14.435
2022-10-05T03:50:11.362Z,14.445
2022-10-05T03:51:11.577Z,14.48
2022-10-05T03:52:12.057Z,14.495
2022-10-05T03:53:11.114Z,14.52
2022-10-05T03:54:09.982Z,14.535
2022-10-05T03:55:11.856Z,14.555
2022-10-05T03:56:11.326Z,14.57
2022-10-05T03:57:10.633Z,14.555
2022-10-05T03:58:11.591Z,14.565
2022-10-05T03:59:10.874Z,14.555
2022-10-05T04:00:10.569Z,14.56
2022-10-05T04:01:11.647Z,14.56
2022-10-05T04:02:11.363Z,14.565
2022-10-05T04:03:10.555Z,14.57
2022-10-05T04:04:10.694Z,14.56
2022-10-05T04:05:10.859Z,14.555
2022-10-05T04:06:11.626Z,14.56
2022-10-05T04:07:11.081Z,14.565
2022-10-05T04:08:10.687Z,14.545
2022-10-05T04:09:10.552Z,14.55
2022-10-05T04:10:10.947Z,14.565
2022-10-05T04:11:11.996Z,14.55
2022-10-05T04:12:10.767Z,14.56
2022-10-05T04:13:10.555Z,14.565
2022-10-05T04:14:10.843Z,14.58
2022-10-05T04:15:14.152Z,14.595
2022-10-05T04:16:10.523Z,14.58
2022-10-05T04:17:11.721Z,14.555
2022-10-05T04:18:10.609Z,14.57
2022-10-05T04:19:10.132Z,14.56
2022-10-05T04:20:10.463Z,14.57
2022-10-05T04:21:10.847Z,14.575
2022-10-05T04:22:10.476Z,14.555
2022-10-05T04:23:11.644Z,14.555
2022-10-05T04:24:10.243Z,14.555
2022-10-05T04:25:10.774Z,14.576
2022-10-05T04:26:11.141Z,14.5738
2022-10-05T04:27:11.108Z,14.565
2022-10-05T04:28:10.555Z,14.5327
2022-10-05T04:29:10.465Z,14.527
2022-10-05T04:30:10.625Z,14.549
2022-10-05T04:31:11.564Z,14.55
2022-10-05T04:32:11.217Z,14.56
2022-10-05T04:33:10.622Z,14.575
2022-10-05T04:34:10.771Z,14.573
2022-10-05T04:35:10.878Z,14.56
2022-10-05T04:36:10.712Z,14.565
2022-10-05T04:37:11.204Z,14.56
2022-10-05T04:38:11.195Z,14.58
2022-10-05T04:39:09.701Z,14.56
2022-10-05T04:40:10.949Z,14.56
2022-10-05T04:41:10.970Z,14.555
2022-10-05T04:42:10.360Z,14.545
2022-10-05T04:43:11.369Z,14.555
2022-10-05T04:44:10.148Z,14.55
2022-10-05T04:45:11.999Z,14.565
2022-10-05T04:46:11.042Z,14.555
2022-10-05T04:47:10.783Z,14.57
2022-10-05T04:48:11.644Z,14.57
2022-10-05T04:49:10.633Z,14.555
2022-10-05T04:50:10.627Z,14.575
2022-10-05T04:51:11.821Z,14.57
2022-10-05T04:52:11.397Z,14.565
2022-10-05T04:53:11.767Z,14.565
2022-10-05T04:54:10.599Z,14.575
2022-10-05T04:55:10.893Z,14.575
2022-10-05T04:56:10.541Z,14.57
2022-10-05T04:57:11.475Z,14.555
2022-10-05T04:58:10.387Z,14.51
2022-10-05T04:59:10.952Z,14.545
2022-10-05T05:00:10.717Z,14.525
2022-10-05T05:01:10.326Z,14.525
2022-10-05T05:02:11.020Z,14.535
2022-10-05T05:03:10.760Z,14.515
2022-10-05T05:04:09.716Z,14.495
2022-10-05T05:05:11.522Z,14.5
2022-10-05T05:06:17.752Z,14.48
2022-10-05T05:07:10.979Z,14.475
2022-10-05T05:08:11.033Z,14.47
2022-10-05T05:09:10.164Z,14.46
2022-10-05T05:10:10.439Z,14.445
2022-10-05T05:11:16.219Z,14.43
2022-10-05T05:12:11.179Z,14.435
2022-10-05T05:13:10.962Z,14.435
2022-10-05T05:14:10.426Z,14.44
2022-10-05T05:15:10.479Z,14.45
2022-10-05T05:16:10.736Z,14.44
2022-10-05T05:17:13.319Z,14.415
2022-10-05T05:18:10.452Z,14.415
2022-10-05T05:19:09.375Z,14.425
2022-10-05T05:20:10.473Z,14.42
2022-10-05T05:21:10.274Z,14.384
2022-10-05T05:22:11.067Z,14.3791
2022-10-05T05:23:10.748Z,14.3741
2022-10-05T05:24:10.105Z,14.35
2022-10-05T05:25:11.503Z,14.362
2022-10-05T05:26:11.005Z,14.339
2022-10-05T05:27:10.309Z,14.3216
2022-10-05T05:28:10.787Z,14.345
2022-10-05T05:29:10.319Z,14.3
2022-10-05T05:30:10.132Z,14.3216
2022-10-05T05:31:11.746Z,14.3108
2022-10-05T05:32:11.357Z,14.311
2022-10-05T05:33:10.816Z,14.305
2022-10-05T05:34:10.695Z,14.295
2022-10-05T05:35:11.296Z,14.27
2022-10-05T05:36:09.883Z,14.275
2022-10-05T05:37:11.668Z,14.275
2022-10-05T05:38:10.840Z,14.265
2022-10-05T05:39:09.426Z,14.255
2022-10-05T05:40:11.514Z,14.225
2022-10-05T05:41:11.068Z,14.245
2022-10-05T05:42:10.904Z,14.245
2022-10-05T05:43:10.635Z,14.235
2022-10-05T05:44:10.539Z,14.22
2022-10-05T05:45:10.116Z,14.215
2022-10-05T05:46:11.113Z,14.235
2022-10-05T05:47:11.185Z,14.215
2022-10-05T05:48:10.428Z,14.2281
2022-10-05T05:49:11.079Z,14.226
2022-10-05T05:50:10.381Z,14.245
2022-10-05T05:51:10.594Z,14.25
2022-10-05T05:52:11.257Z,14.2638
2022-10-05T05:53:10.880Z,14.2827
2022-10-05T05:54:11.169Z,14.306
2022-10-05T05:55:11.824Z,14.333
2022-10-05T05:56:11.013Z,14.3227
2022-10-05T05:57:11.569Z,14.346
2022-10-05T05:58:11.403Z,14.39
2022-10-05T05:59:10.283Z,14.409
2022-10-05T06:00:11.998Z,14.4307
2022-10-05T06:01:30.603Z,14.4454
2022-10-05T06:02:11.165Z,14.485
2022-10-05T06:03:11.791Z,14.5
2022-10-05T06:04:10.605Z,14.54
2022-10-05T06:05:10.894Z,14.575
2022-10-05T06:06:11.885Z,14.615
2022-10-05T06:07:11.563Z,14.6316
2022-10-05T06:08:10.801Z,14.654
2022-10-05T06:09:10.385Z,14.699
2022-10-05T06:10:10.472Z,14.73
2022-10-05T06:11:10.787Z,14.755
2022-10-05T06:12:10.967Z,14.8
2022-10-05T06:13:11.207Z,14.775
2022-10-05T06:14:09.623Z,14.77
2022-10-05T06:15:11.275Z,14.76
2022-10-05T06:16:11.219Z,14.78
2022-10-05T06:17:10.827Z,14.805
2022-10-05T06:18:11.341Z,14.833
2022-10-05T06:19:09.887Z,14.873
2022-10-05T06:20:11.027Z,14.899
2022-10-05T06:21:11.040Z,14.925
2022-10-05T06:22:10.861Z,14.96
2022-10-05T06:23:11.687Z,14.995
2022-10-05T06:24:10.514Z,15.03
2022-10-05T06:25:11.371Z,15.045
2022-10-05T06:26:11.517Z,15.08
2022-10-05T06:27:11.114Z,15.115
2022-10-05T06:28:11.250Z,15.149
2022-10-05T06:29:11.709Z,15.195
2022-10-05T06:30:10.839Z,15.23
2022-10-05T06:31:11.173Z,15.265
2022-10-05T06:32:11.656Z,15.285
2022-10-05T06:33:11.463Z,15.316
2022-10-05T06:34:10.130Z,15.333
2022-10-05T06:35:12.291Z,15.405
2022-10-05T06:36:10.888Z,15.43
2022-10-05T06:37:10.687Z,15.47
2022-10-05T06:38:11.120Z,15.505
2022-10-05T06:39:11.351Z,15.54
2022-10-05T06:40:10.526Z,15.57
2022-10-05T06:41:11.116Z,15.6
2022-10-05T06:42:10.951Z,15.638
2022-10-05T06:43:10.857Z,15.655
2022-10-05T06:44:11.185Z,15.6783
2022-10-05T06:45:10.783Z,15.745
2022-10-05T06:46:10.131Z,15.77
2022-10-05T06:47:10.900Z,15.8158
2022-10-05T06:48:10.883Z,15.827
2022-10-05T06:49:09.901Z,15.89
2022-10-05T06:50:10.948Z,15.945
2022-10-05T06:51:10.887Z,15.965
2022-10-05T06:52:09.890Z,15.995
2022-10-05T06:53:11.099Z,16.03
2022-10-05T06:54:10.498Z,16.07
2022-10-05T06:55:14.188Z,16.095
2022-10-05T06:56:11.465Z,16.116
2022-10-05T06:57:11.315Z,16.194
2022-10-05T06:58:10.420Z,16.21
2022-10-05T06:59:10.959Z,16.255
2022-10-05T07:00:10.961Z,16.3
2022-10-05T07:01:11.270Z,16.334
2022-10-05T07:02:10.666Z,16.399
2022-10-05T07:03:10.551Z,16.4
2022-10-05T07:04:10.368Z,16.455
2022-10-05T07:05:11.236Z,16.46
2022-10-05T07:06:10.610Z,16.515
2022-10-05T07:07:11.868Z,16.545
2022-10-05T07:08:11.657Z,16.56
2022-10-05T07:09:10.873Z,16.605
2022-10-05T07:10:11.600Z,16.649
2022-10-05T07:11:11.072Z,16.688
2022-10-05T07:12:10.651Z,16.7227
2022-10-05T07:13:11.198Z,16.74
2022-10-05T07:14:11.101Z,16.78
2022-10-05T07:15:11.297Z,16.8
2022-10-05T07:16:11.952Z,16.842
2022-10-05T07:17:11.102Z,16.8854
2022-10-05T07:18:10.306Z,16.92
2022-10-05T07:19:11.653Z,16.93
2022-10-05T07:20:11.237Z,16.96
2022-10-05T07:21:10.589Z,16.995
2022-10-05T07:22:11.608Z,17.045
2022-10-05T07:23:11.258Z,17.06
2022-10-05T07:24:09.805Z,17.085
2022-10-05T07:25:11.509Z,17.105
2022-10-05T07:26:10.772Z,17.11
2022-10-05T07:27:10.747Z,17.137
2022-10-05T07:28:11.094Z,17.126
2022-10-05T07:29:10.772Z,17.155
2022-10-05T07:30:11.458Z,17.1891
2022-10-05T07:31:11.620Z,17.245
2022-10-05T07:32:11.442Z,17.295
2022-10-05T07:33:11.657Z,17.3158
2022-10-05T07:34:11.434Z,17.394
2022-10-05T07:35:10.962Z,17.435
2022-10-05T07:36:11.382Z,17.475
2022-10-05T07:37:11.017Z,17.505
2022-10-05T07:38:10.765Z,17.555
2022-10-05T07:39:10.695Z,17.58
2022-10-05T07:40:11.075Z,17.649
2022-10-05T07:41:10.395Z,17.672
2022-10-05T07:42:11.181Z,17.715
2022-10-05T07:43:11.136Z,17.765
2022-10-05T07:44:12.708Z,17.8216
2022-10-05T07:45:11.895Z,17.866
2022-10-05T07:46:10.714Z,17.909
2022-10-05T07:47:11.033Z,17.935
2022-10-05T07:48:11.047Z,17.97
2022-10-05T07:49:10.202Z,18.02
2022-10-05T07:50:10.377Z,18.06
2022-10-05T07:51:11.447Z,18.117
2022-10-05T07:52:11.336Z,18.1891
2022-10-05T07:53:10.862Z,18.215
2022-10-05T07:54:10.493Z,18.28
2022-10-05T07:55:11.222Z,18.3108
2022-10-05T07:56:10.588Z,18.35
2022-10-05T07:57:11.102Z,18.405
2022-10-05T07:58:11.202Z,18.43
2022-10-05T07:59:10.242Z,18.465
2022-10-05T08:00:10.986Z,18.48
2022-10-05T08:01:10.761Z,18.535
2022-10-05T08:02:12.184Z,18.565
2022-10-05T08:03:11.015Z,18.627
2022-10-05T08:04:09.656Z,18.699
2022-10-05T08:05:11.607Z,18.785
2022-10-05T08:06:10.956Z,18.822
2022-10-05T08:07:11.824Z,18.882
2022-10-05T08:08:13.257Z,18.92
2022-10-05T08:09:10.182Z,18.935
2022-10-05T08:10:11.681Z,18.945
2022-10-05T08:11:16.954Z,18.98
2022-10-05T08:12:11.126Z,19.02
2022-10-05T08:13:11.701Z,19.1
2022-10-05T08:14:11.070Z,19.137
2022-10-05T08:15:11.014Z,19.2
2022-10-05T08:16:11.656Z,19.245
2022-10-05T08:17:10.630Z,19.295
2022-10-05T08:18:11.943Z,19.333
2022-10-05T08:19:10.787Z,19.3791
2022-10-05T08:20:10.579Z,19.3741
2022-10-05T08:21:12.001Z,19.425
2022-10-05T08:22:11.299Z,19.455
2022-10-05T08:23:10.585Z,19.52
2022-10-05T08:24:10.486Z,19.565
2022-10-05T08:25:11.473Z,19.595
2022-10-05T08:26:10.920Z,19.66
2022-10-05T08:27:11.291Z,19.693
2022-10-05T08:28:10.695Z,19.74
2022-10-05T08:29:13.762Z,19.8108
2022-10-05T08:30:11.077Z,19.872
2022-10-05T08:31:10.998Z,19.95
2022-10-05T08:32:10.356Z,19.99
2022-10-05T08:33:11.742Z,20.015
2022-10-05T08:34:09.953Z,20.055
2022-10-05T08:35:10.593Z,20.0872
2022-10-05T08:36:11.339Z,20.121
2022-10-05T08:37:11.153Z,20.17
2022-10-05T08:38:10.463Z,20.183
2022-10-05T08:39:10.605Z,20.226
2022-10-05T08:40:10.558Z,20.2718
2022-10-05T08:41:10.597Z,20.355
2022-10-05T08:42:11.738Z,20.397
2022-10-05T08:43:10.786Z,20.4618
2022-10-05T08:44:09.432Z,20.53
2022-10-05T08:45:11.136Z,20.58
2022-10-05T08:46:10.620Z,20.688
2022-10-05T08:47:11.561Z,20.735
2022-10-05T08:48:10.619Z,20.775
2022-10-05T08:49:09.530Z,20.833
2022-10-05T08:50:10.647Z,20.867
2022-10-05T08:51:11.328Z,20.905
2022-10-05T08:52:10.634Z,20.945
2022-10-05T08:53:10.999Z,21
2022-10-05T08:54:10.240Z,21.045
2022-10-05T08:55:10.689Z,21.1
2022-10-05T08:56:11.420Z,21.154
2022-10-05T08:57:10.972Z,21.194
2022-10-05T08:58:11.468Z,21.21
2022-10-05T08:59:10.326Z,21.255
2022-10-05T09:00:10.859Z,21.3
2022-10-05T09:01:11.812Z,21.35
2022-10-05T09:02:11.357Z,21.373
2022-10-05T09:03:10.932Z,21.41
2022-10-05T09:04:11.386Z,21.42
2022-10-05T09:05:11.394Z,21.47
2022-10-05T09:06:10.803Z,21.48
2022-10-05T09:07:11.564Z,21.51
2022-10-05T09:08:11.024Z,21.535
2022-10-05T09:09:11.085Z,21.555
2022-10-05T09:10:11.347Z,21.585
2022-10-05T09:11:11.602Z,21.59
2022-10-05T09:12:11.052Z,21.555
2022-10-05T09:13:11.672Z,21.57
2022-10-05T09:14:10.360Z,21.605
2022-10-05T09:15:25.365Z,21.595
2022-10-05T09:16:11.115Z,21.61
2022-10-05T09:17:12.207Z,21.643
2022-10-05T09:18:10.664Z,21.666
2022-10-05T09:19:11.679Z,21.683
2022-10-05T09:20:11.196Z,21.704
2022-10-05T09:21:11.679Z,21.75
2022-10-05T09:22:11.035Z,21.79
2022-10-05T09:23:10.562Z,21.8108
2022-10-05T09:24:10.904Z,21.845
2022-10-05T09:25:11.504Z,21.905
2022-10-05T09:26:10.564Z,21.925
2022-10-05T09:27:11.417Z,21.945
2022-10-05T09:28:11.282Z,21.96
2022-10-05T09:29:09.566Z,21.99
2022-10-05T09:30:11.388Z,21.99
2022-10-05T09:31:11.065Z,22.01
2022-10-05T09:32:14.227Z,22.04
2022-10-05T09:33:11.696Z,22.06
2022-10-05T09:34:10.191Z,22.08
2022-10-05T09:35:11.226Z,22.1
2022-10-05T09:36:10.958Z,22.095
2022-10-05T09:37:10.868Z,22.115
2022-10-05T09:38:10.768Z,22.143
2022-10-05T09:39:10.100Z,22.144
2022-10-05T09:40:10.930Z,22.1316
2022-10-05T09:41:10.629Z,22.155
2022-10-05T09:42:11.011Z,22.137
2022-10-05T09:43:11.731Z,22.177
2022-10-05T09:44:10.150Z,22.195
2022-10-05T09:45:11.100Z,22.215
2022-10-05T09:46:11.593Z,22.24
2022-10-05T09:47:10.591Z,22.25
2022-10-05T09:48:10.963Z,22.28
2022-10-05T09:49:11.307Z,22.305
2022-10-05T09:50:10.850Z,22.305
2022-10-05T09:51:11.602Z,22.339
2022-10-05T09:52:16.483Z,22.339
2022-10-05T09:53:10.868Z,22.345
2022-10-05T09:54:11.515Z,22.35
2022-10-05T09:55:10.944Z,22.339
2022-10-05T09:56:11.105Z,22.3791
2022-10-05T09:57:11.833Z,22.395
2022-10-05T09:58:10.604Z,22.41
2022-10-05T09:59:09.988Z,22.4236
2022-10-05T10:00:11.604Z,22.453
2022-10-05T10:01:29.300Z,22.475
2022-10-05T10:02:10.557Z,22.4672
2022-10-05T10:03:11.505Z,22.495
2022-10-05T10:04:11.264Z,22.5163
2022-10-05T10:05:10.910Z,22.5
2022-10-05T10:06:11.411Z,22.5046
2022-10-05T10:07:11.319Z,22.5218
2022-10-05T10:08:10.518Z,22.525
2022-10-05T10:09:10.551Z,22.555
2022-10-05T10:10:10.667Z,22.595
2022-10-05T10:11:11.017Z,22.637
2022-10-05T10:12:11.794Z,22.6783
2022-10-05T10:13:11.385Z,22.6783
2022-10-05T10:14:10.845Z,22.715
2022-10-05T10:15:11.176Z,22.745
2022-10-05T10:16:10.791Z,22.795
2022-10-05T10:17:11.583Z,22.839
2022-10-05T10:18:11.852Z,22.861
2022-10-05T10:19:10.091Z,22.884
2022-10-05T10:20:11.246Z,22.91
2022-10-05T10:21:10.996Z,22.95
2022-10-05T10:22:10.655Z,22.98
2022-10-05T10:23:11.078Z,23
2022-10-05T10:24:11.120Z,23.03
2022-10-05T10:25:10.674Z,23.05
2022-10-05T10:26:11.417Z,23.06
2022-10-05T10:27:11.098Z,23.085
2022-10-05T10:28:10.937Z,23.11
2022-10-05T10:29:11.360Z,23.1258
2022-10-05T10:30:11.363Z,23.1316
2022-10-05T10:31:11.515Z,23.143
2022-10-05T10:32:10.900Z,23.1316
2022-10-05T10:33:11.014Z,23.137
2022-10-05T10:34:10.863Z,23.149
2022-10-05T10:35:11.395Z,23.1316
2022-10-05T10:36:10.533Z,23.204
2022-10-05T10:37:11.387Z,23.235
2022-10-05T10:38:11.066Z,23.255
2022-10-05T10:39:09.705Z,23.29
2022-10-05T10:40:11.535Z,23.3108
2022-10-05T10:41:10.506Z,23.399
2022-10-05T10:42:11.769Z,23.405
2022-10-05T10:43:11.170Z,23.42
2022-10-05T10:44:09.957Z,23.45
2022-10-05T10:45:11.278Z,23.399
2022-10-05T10:46:11.036Z,23.332
2022-10-05T10:47:11.958Z,23.29
2022-10-05T10:48:11.530Z,23.28
2022-10-05T10:49:11.180Z,23.255
2022-10-05T10:50:11.527Z,23.255
2022-10-05T10:51:11.673Z,23.305
2022-10-05T10:52:11.033Z,23.333
2022-10-05T10:53:11.707Z,23.38
2022-10-05T10:54:11.053Z,23.41
2022-10-05T10:55:11.121Z,23.45
2022-10-05T10:56:11.517Z,23.455
2022-10-05T10:57:11.451Z,23.475
2022-10-05T10:58:15.745Z,23.495
2022-10-05T10:59:10.530Z,23.55
2022-10-05T11:00:10.830Z,23.59
2022-10-05T11:01:11.678Z,23.626
2022-10-05T11:02:10.969Z,23.678
2022-10-05T11:03:11.689Z,23.709
2022-10-05T11:04:10.210Z,23.72
2022-10-05T11:05:11.187Z,23.75
2022-10-05T11:06:11.460Z,23.755
2022-10-05T11:07:11.356Z,23.74
2022-10-05T11:08:10.296Z,23.75
2022-10-05T11:09:10.672Z,23.755
2022-10-05T11:10:10.816Z,23.77
2022-10-05T11:11:10.438Z,23.785
2022-10-05T11:12:11.157Z,23.833
2022-10-05T11:13:11.102Z,23.856
2022-10-05T11:14:09.362Z,23.835
2022-10-05T11:15:12.080Z,23.818
2022-10-05T11:16:12.536Z,23.899
2022-10-05T11:17:10.636Z,23.86
2022-10-05T11:18:10.744Z,23.889
2022-10-05T11:19:09.620Z,23.9
2022-10-05T11:20:10.280Z,23.8909
2022-10-05T11:21:11.099Z,23.883
2022-10-05T11:22:10.691Z,23.86
2022-10-05T11:23:10.371Z,23.805
2022-10-05T11:24:10.325Z,23.7961
2022-10-05T11:25:10.930Z,23.8045
2022-10-05T11:26:10.515Z,23.8158
2022-10-05T11:27:11.643Z,23.8107
2022-10-05T11:28:10.514Z,23.7881
2022-10-05T11:29:09.319Z,23.79
2022-10-05T11:30:11.485Z,23.78
2022-10-05T11:31:10.432Z,23.745
2022-10-05T11:32:10.084Z,23.73
2022-10-05T11:33:11.428Z,23.735
2022-10-05T11:34:09.861Z,23.775
2022-10-05T11:35:11.312Z,23.785
2022-10-05T11:36:10.756Z,23.79
2022-10-05T11:37:11.008Z,23.805
2022-10-05T11:38:11.062Z,23.805
2022-10-05T11:39:10.371Z,23.775
2022-10-05T11:40:10.630Z,23.79
2022-10-05T11:41:11.282Z,23.8216
2022-10-05T11:42:11.301Z,23.8108
2022-10-05T11:43:10.790Z,23.827
2022-10-05T11:44:10.313Z,23.845
2022-10-05T11:45:11.440Z,23.895
2022-10-05T11:46:10.257Z,23.915
2022-10-05T11:47:11.334Z,23.955
2022-10-05T11:48:10.407Z,23.975
2022-10-05T11:49:09.704Z,23.995
2022-10-05T11:50:10.974Z,24.045
2022-10-05T11:51:10.486Z,24.04
2022-10-05T11:52:10.604Z,24.035
2022-10-05T11:53:11.565Z,24.035
2022-10-05T11:54:09.844Z,24.045
2022-10-05T11:55:12.166Z,24.055
2022-10-05T11:56:11.229Z,24.095
2022-10-05T11:57:11.458Z,24.12
2022-10-05T11:58:10.931Z,24.143
2022-10-05T11:59:10.831Z,24.16
2022-10-05T12:00:11.037Z,24.19
2022-10-05T12:01:11.091Z,24.215
2022-10-05T12:02:11.691Z,24.21
2022-10-05T12:03:11.064Z,24.27
2022-10-05T12:04:09.725Z,24.311
2022-10-05T12:05:11.610Z,24.3741
2022-10-05T12:06:10.433Z,24.39
2022-10-05T12:07:11.420Z,24.425
2022-10-05T12:08:10.645Z,24.465
2022-10-05T12:09:09.869Z,24.495
2022-10-05T12:10:11.494Z,24.495
2022-10-05T12:11:10.881Z,24.515
2022-10-05T12:12:10.089Z,24.515
2022-10-05T12:13:11.235Z,24.54
2022-10-05T12:14:10.107Z,24.54
2022-10-05T12:15:10.823Z,24.555
2022-10-05T12:16:11.289Z,24.622
2022-10-05T12:17:11.131Z,24.585
2022-10-05T12:18:11.414Z,24.605
2022-10-05T12:19:11.158Z,24.595
2022-10-05T12:20:10.654Z,24.57
2022-10-05T12:21:11.911Z,24.58
2022-10-05T12:22:10.896Z,24.565
2022-10-05T12:23:10.810Z,24.596
2022-10-05T12:24:10.525Z,24.575
2022-10-05T12:25:11.317Z,24.61
2022-10-05T12:26:10.260Z,24.643
2022-10-05T12:27:11.186Z,24.69
2022-10-05T12:28:10.314Z,24.6841
2022-10-05T12:29:11.390Z,24.6783
2022-10-05T12:30:11.646Z,24.666
2022-10-05T12:31:11.157Z,24.7
2022-10-05T12:32:10.829Z,24.735
2022-10-05T12:33:11.222Z,24.765
2022-10-05T12:34:10.214Z,24.805